createdAt,value
2024-01-18T00:00:41.575Z,9.93
2024-01-18T00:03:08.816Z,9.25
2024-01-18T00:05:35.237Z,8.17
2024-01-18T00:08:01.684Z,9.13
2024-01-18T00:10:29.086Z,10.27
2024-01-18T00:12:56.024Z,10.80
2024-01-18T00:15:22.781Z,11.93
2024-01-18T00:17:49.767Z,11.53
2024-01-18T00:20:16.408Z,13.38
2024-01-18T00:22:42.751Z,13.07
2024-01-18T00:25:09.445Z,11.65
2024-01-18T00:27:35.868Z,11.88
2024-01-18T00:30:02.485Z,10.83
2024-01-18T00:32:28.932Z,13.43
2024-01-18T00:34:55.313Z,11.52
2024-01-18T00:37:21.644Z,10.50
2024-01-18T00:39:48.007Z,10.70
2024-01-18T00:42:14.424Z,10.73
2024-01-18T00:44:40.777Z,11.30
2024-01-18T00:47:07.547Z,11.18
2024-01-18T00:49:34.505Z,8.68
2024-01-18T00:52:00.955Z,7.72
2024-01-18T00:54:27.342Z,9.13
2024-01-18T00:56:53.798Z,7.68
2024-01-18T00:59:20.294Z,8.32
2024-01-18T01:01:46.640Z,7.22
2024-01-18T01:04:13.083Z,8.90
2024-01-18T01:06:39.443Z,8.33
2024-01-18T01:09:07.477Z,10.00
2024-01-18T01:11:33.972Z,9.77
2024-01-18T01:14:00.718Z,6.82
2024-01-18T01:16:27.069Z,8.82
2024-01-18T01:18:53.426Z,8.93
2024-01-18T01:21:19.892Z,7.95
2024-01-18T01:23:49.837Z,7.95
2024-01-18T01:26:16.929Z,9.57
2024-01-18T01:28:43.730Z,8.68
2024-01-18T01:31:10.342Z,10.00
2024-01-18T01:33:37.346Z,9.32
2024-01-18T01:36:05.265Z,8.82
2024-01-18T01:38:31.749Z,10.55
2024-01-18T01:40:58.154Z,10.57
2024-01-18T01:43:24.548Z,8.73
2024-01-18T01:45:50.930Z,11.32
2024-01-18T01:48:18.041Z,9.95
2024-01-18T01:50:45.326Z,10.40
2024-01-18T01:53:12.679Z,9.50
2024-01-18T01:55:39.354Z,12.10
2024-01-18T01:58:06.203Z,10.93
2024-01-18T02:00:33.151Z,10.63
2024-01-18T02:02:59.846Z,9.63
2024-01-18T02:05:27.865Z,10.35
2024-01-18T02:07:55.898Z,11.93
2024-01-18T02:10:23.458Z,11.02
2024-01-18T02:12:53.265Z,11.75
2024-01-18T02:15:20.340Z,11.77
2024-01-18T02:17:47.050Z,10.35
2024-01-18T02:20:13.460Z,10.03
2024-01-18T02:22:44.035Z,10.93
2024-01-18T02:25:23.556Z,12.32
2024-01-18T02:27:49.980Z,10.82
2024-01-18T02:30:16.477Z,10.80
2024-01-18T02:32:42.950Z,10.57
2024-01-18T02:35:09.663Z,9.20
2024-01-18T02:37:36.074Z,9.00
2024-01-18T02:40:03.187Z,9.38
2024-01-18T02:42:29.614Z,10.75
2024-01-18T02:44:58.871Z,11.07
2024-01-18T02:47:29.217Z,12.43
2024-01-18T02:49:58.355Z,11.63
2024-01-18T02:52:24.792Z,12.45
2024-01-18T02:54:51.116Z,9.98
2024-01-18T02:57:17.541Z,11.20
2024-01-18T02:59:43.871Z,11.52
2024-01-18T03:02:10.191Z,10.18
2024-01-18T03:04:36.636Z,11.60
2024-01-18T03:07:03.170Z,11.77
2024-01-18T03:09:29.583Z,14.03
2024-01-18T03:11:55.997Z,13.93
2024-01-18T03:14:22.389Z,14.07
2024-01-18T03:16:48.718Z,14.32
2024-01-18T03:19:15.133Z,13.20
2024-01-18T03:21:41.673Z,14.10
2024-01-18T03:24:08.079Z,13.38
2024-01-18T03:26:34.642Z,14.25
2024-01-18T03:29:00.969Z,14.23
2024-01-18T03:31:27.336Z,13.48
2024-01-18T03:33:53.823Z,12.73
2024-01-18T03:36:20.249Z,12.88
2024-01-18T03:38:46.628Z,11.80
2024-01-18T03:41:16.049Z,13.25
2024-01-18T03:43:42.384Z,12.63
2024-01-18T03:46:13.608Z,13.20
2024-01-18T03:48:39.935Z,11.15
2024-01-18T03:51:06.522Z,13.18
2024-01-18T03:53:32.877Z,11.77
2024-01-18T03:56:00.518Z,11.15
2024-01-18T03:58:26.915Z,10.20
2024-01-18T04:00:53.420Z,10.38
2024-01-18T04:03:21.637Z,10.82
2024-01-18T04:05:48.116Z,10.35
2024-01-18T04:08:14.567Z,8.63
2024-01-18T04:10:40.903Z,7.67
2024-01-18T04:13:07.259Z,9.00
2024-01-18T04:15:33.640Z,8.30
2024-01-18T04:18:00.154Z,9.45
2024-01-18T04:20:28.719Z,7.55
2024-01-18T04:22:55.317Z,6.37
2024-01-18T04:25:22.708Z,6.45
2024-01-18T04:27:49.194Z,8.30
2024-01-18T04:30:15.706Z,6.57
2024-01-18T04:32:42.124Z,5.43
2024-01-18T04:35:08.793Z,6.90
2024-01-18T04:37:35.230Z,8.00
2024-01-18T04:40:02.342Z,7.85
2024-01-18T04:42:28.720Z,8.25
2024-01-18T04:44:55.198Z,7.55
2024-01-18T04:47:21.569Z,7.57
2024-01-18T04:49:48.097Z,6.97
2024-01-18T04:52:14.483Z,6.70
2024-01-18T04:54:40.919Z,6.38
2024-01-18T04:57:07.588Z,5.43
2024-01-18T04:59:34.100Z,6.37
2024-01-18T05:02:00.448Z,5.40
2024-01-18T05:04:27.107Z,5.63
2024-01-18T05:06:53.637Z,6.50
2024-01-18T05:09:20.110Z,5.13
2024-01-18T05:11:47.184Z,6.67
2024-01-18T05:14:13.541Z,7.20
2024-01-18T05:16:44.535Z,6.43
2024-01-18T05:19:11.013Z,7.10
2024-01-18T05:21:37.466Z,3.65
2024-01-18T05:24:04.119Z,4.13
2024-01-18T05:26:30.507Z,4.88
2024-01-18T05:28:57.142Z,3.72
2024-01-18T05:31:23.488Z,3.30
2024-01-18T05:33:50.087Z,4.47
2024-01-18T05:36:16.504Z,3.97
2024-01-18T05:38:42.894Z,3.15
2024-01-18T05:41:09.838Z,1.52
2024-01-18T05:43:36.174Z,3.45
2024-01-18T05:46:03.916Z,2.72
2024-01-18T05:48:30.380Z,2.53
2024-01-18T05:50:56.803Z,2.80
2024-01-18T05:53:23.212Z,2.88
2024-01-18T05:55:49.652Z,3.30
2024-01-18T05:58:16.077Z,3.83
2024-01-18T06:00:42.993Z,2.70
2024-01-18T06:03:09.563Z,3.08
2024-01-18T06:05:35.921Z,3.25
2024-01-18T06:08:03.283Z,3.00
2024-01-18T06:10:29.660Z,3.03
2024-01-18T06:12:55.974Z,3.00
2024-01-18T06:15:23.554Z,2.78
2024-01-18T06:17:49.934Z,4.90
2024-01-18T06:20:16.467Z,2.95
2024-01-18T06:22:42.897Z,3.08
2024-01-18T06:25:09.240Z,4.60
2024-01-18T06:27:36.593Z,4.20
2024-01-18T06:30:03.229Z,3.60
2024-01-18T06:32:29.995Z,4.07
2024-01-18T06:34:56.476Z,5.20
2024-01-18T06:37:23.510Z,5.70
2024-01-18T06:39:51.067Z,4.65
2024-01-18T06:42:17.981Z,5.25
2024-01-18T06:44:47.575Z,6.93
2024-01-18T06:47:13.993Z,5.15
2024-01-18T06:49:40.445Z,3.93
2024-01-18T06:52:06.970Z,4.25
2024-01-18T06:54:33.408Z,5.00
2024-01-18T06:56:59.960Z,4.85
2024-01-18T06:59:26.293Z,3.30
2024-01-18T07:01:53.725Z,4.00
2024-01-18T07:04:20.725Z,3.63
2024-01-18T07:06:47.136Z,5.13
2024-01-18T07:09:13.647Z,4.05
2024-01-18T07:11:40.399Z,4.88
2024-01-18T07:14:06.858Z,4.33
2024-01-18T07:16:33.437Z,4.32
2024-01-18T07:18:59.876Z,3.85
2024-01-18T07:21:26.372Z,4.55
2024-01-18T07:23:52.869Z,4.55
2024-01-18T07:26:19.848Z,3.03
2024-01-18T07:28:46.290Z,6.15
2024-01-18T07:31:12.759Z,5.45
2024-01-18T07:33:39.363Z,4.45
2024-01-18T07:36:06.534Z,5.55
2024-01-18T07:38:32.969Z,5.97
2024-01-18T07:40:59.320Z,5.38
2024-01-18T07:43:25.661Z,4.70
2024-01-18T07:45:52.085Z,6.00
2024-01-18T07:48:18.575Z,4.93
2024-01-18T07:50:45.091Z,4.80
2024-01-18T07:53:12.461Z,5.95
2024-01-18T07:55:38.873Z,4.07
2024-01-18T07:58:05.350Z,4.70
2024-01-18T08:00:31.840Z,6.07
2024-01-18T08:02:58.300Z,4.27
2024-01-18T08:05:25.395Z,5.70
2024-01-18T08:07:51.802Z,6.32
2024-01-18T08:10:18.171Z,5.80
2024-01-18T08:12:45.552Z,5.82
2024-01-18T08:15:15.106Z,6.70
2024-01-18T08:17:43.530Z,5.05
2024-01-18T08:20:14.167Z,5.25
2024-01-18T08:22:41.662Z,5.75
2024-01-18T08:25:09.219Z,6.05
2024-01-18T08:27:35.617Z,6.40
2024-01-18T08:30:02.151Z,5.55
2024-01-18T08:32:32.947Z,4.60
2024-01-18T08:34:59.308Z,5.50
2024-01-18T08:37:25.725Z,6.93
2024-01-18T08:39:52.132Z,6.30
2024-01-18T08:42:18.576Z,4.85
2024-01-18T08:44:47.198Z,4.93
2024-01-18T08:47:13.676Z,5.10
2024-01-18T08:49:40.120Z,5.15
2024-01-18T08:52:06.775Z,5.77
2024-01-18T08:54:33.275Z,5.43
2024-01-18T08:56:59.650Z,5.88
2024-01-18T08:59:26.053Z,5.30
2024-01-18T09:01:52.559Z,5.38
2024-01-18T09:04:18.963Z,5.20
2024-01-18T09:06:45.369Z,7.30
2024-01-18T09:09:12.322Z,4.70
2024-01-18T09:11:39.298Z,7.00
2024-01-18T09:14:05.851Z,6.07
2024-01-18T09:16:32.872Z,7.37
2024-01-18T09:19:10.725Z,5.60
2024-01-18T09:21:42.632Z,9.02
2024-01-18T09:24:09.290Z,7.05
2024-01-18T09:26:35.636Z,7.15
2024-01-18T09:29:03.316Z,8.03
2024-01-18T09:31:38.120Z,7.88
2024-01-18T09:34:08.270Z,7.28
2024-01-18T09:36:34.639Z,8.15
2024-01-18T09:39:01.019Z,7.20
2024-01-18T09:41:30.187Z,7.10
2024-01-18T09:44:04.273Z,7.05
2024-01-18T09:46:31.539Z,11.27
2024-01-18T09:49:02.036Z,6.47
2024-01-18T09:51:30.665Z,7.38
2024-01-18T09:53:57.374Z,6.43
2024-01-18T09:56:28.345Z,8.75
2024-01-18T09:58:55.944Z,7.82
2024-01-18T10:01:24.869Z,8.38
2024-01-18T10:03:52.128Z,9.40
2024-01-18T10:06:20.035Z,6.70
2024-01-18T10:08:47.817Z,6.32
2024-01-18T10:11:14.351Z,8.38
2024-01-18T10:13:57.531Z,5.82
2024-01-18T10:16:31.531Z,6.15
2024-01-18T10:18:59.135Z,7.73
2024-01-18T10:21:25.787Z,7.53
2024-01-18T10:23:54.148Z,6.65
2024-01-18T10:26:22.966Z,6.00
2024-01-18T10:28:49.940Z,9.52
2024-01-18T10:31:16.294Z,9.33
2024-01-18T10:33:42.715Z,7.28
2024-01-18T10:36:09.502Z,7.57
2024-01-18T10:38:37.507Z,8.88
2024-01-18T10:41:04.919Z,9.88
2024-01-18T10:43:32.276Z,7.73
2024-01-18T10:45:59.753Z,9.38
2024-01-18T10:48:36.873Z,9.23
2024-01-18T10:51:06.157Z,8.75
2024-01-18T10:53:34.792Z,8.70
2024-01-18T10:56:02.397Z,7.17
2024-01-18T10:58:28.879Z,8.05
2024-01-18T11:00:55.949Z,8.07
2024-01-18T11:03:22.616Z,7.03
2024-01-18T11:05:49.614Z,7.97
2024-01-18T11:08:17.355Z,9.73
2024-01-18T11:10:45.923Z,6.97
2024-01-18T11:13:14.198Z,7.25
2024-01-18T11:15:42.865Z,6.82
2024-01-18T11:18:10.659Z,6.93
2024-01-18T11:20:59.096Z,9.00
2024-01-18T11:23:29.748Z,8.18
2024-01-18T11:25:56.331Z,8.45
2024-01-18T11:28:29.528Z,9.15
2024-01-18T11:30:56.296Z,6.93
2024-01-18T11:33:23.301Z,8.33
2024-01-18T11:35:50.206Z,9.73
2024-01-18T11:38:26.799Z,10.57
2024-01-18T11:40:57.650Z,8.02
2024-01-18T11:43:25.500Z,8.40
2024-01-18T11:45:52.234Z,10.97
2024-01-18T11:48:19.898Z,12.48
2024-01-18T11:50:46.638Z,11.50
2024-01-18T11:53:15.119Z,10.23
2024-01-18T11:55:49.755Z,9.07
2024-01-18T11:58:17.772Z,11.83
2024-01-18T12:00:44.228Z,15.85
2024-01-18T12:03:13.802Z,13.68
2024-01-18T12:05:41.554Z,12.93
2024-01-18T12:08:09.450Z,14.25
2024-01-18T12:10:36.430Z,13.23
2024-01-18T12:13:02.868Z,16.58
2024-01-18T12:15:29.698Z,11.43
2024-01-18T12:17:56.471Z,12.43
2024-01-18T12:20:23.081Z,13.40
2024-01-18T12:22:49.488Z,15.90
2024-01-18T12:25:15.972Z,16.17
2024-01-18T12:27:42.512Z,15.77
2024-01-18T12:30:10.092Z,15.38
2024-01-18T12:32:36.921Z,13.80
2024-01-18T12:35:03.724Z,14.87
2024-01-18T12:37:30.370Z,16.25
2024-01-18T12:39:56.855Z,12.82
2024-01-18T12:42:23.466Z,14.80
2024-01-18T12:44:53.489Z,14.93
2024-01-18T12:47:19.928Z,16.53
2024-01-18T12:49:46.823Z,12.68
2024-01-18T12:52:16.233Z,14.60
2024-01-18T12:54:44.253Z,15.68
2024-01-18T12:57:12.319Z,15.52
2024-01-18T12:59:38.909Z,14.00
2024-01-18T13:02:05.384Z,17.13
2024-01-18T13:04:35.379Z,16.38
2024-01-18T13:07:04.627Z,14.30
2024-01-18T13:09:33.755Z,16.67
2024-01-18T13:12:03.811Z,12.50
2024-01-18T13:14:31.618Z,16.20
2024-01-18T13:16:58.473Z,15.63
2024-01-18T13:19:25.542Z,17.00
2024-01-18T13:21:53.505Z,15.68
2024-01-18T13:24:21.199Z,17.03
2024-01-18T13:26:48.696Z,16.85
2024-01-18T13:29:17.471Z,16.58
2024-01-18T13:31:43.861Z,17.05
2024-01-18T13:34:10.249Z,19.33
2024-01-18T13:36:36.674Z,16.87
2024-01-18T13:39:07.201Z,23.02
2024-01-18T13:41:33.645Z,14.85
2024-01-18T13:44:00.046Z,17.05
2024-01-18T13:46:26.391Z,16.05
2024-01-18T13:48:54.060Z,14.17
2024-01-18T13:51:20.559Z,16.25
2024-01-18T13:53:51.300Z,17.50
2024-01-18T13:56:21.758Z,14.65
2024-01-18T13:58:48.758Z,15.63
2024-01-18T14:01:15.526Z,17.10
2024-01-18T14:03:46.995Z,20.63
2024-01-18T14:06:16.895Z,13.43
2024-01-18T14:08:47.522Z,15.73
2024-01-18T14:11:15.054Z,14.00
2024-01-18T14:13:42.449Z,19.27
2024-01-18T14:16:13.002Z,18.35
2024-01-18T14:18:39.738Z,15.75
2024-01-18T14:21:06.271Z,14.77
2024-01-18T14:23:33.351Z,15.82
2024-01-18T14:26:01.373Z,13.80
2024-01-18T14:28:27.855Z,16.17
2024-01-18T14:30:54.410Z,13.20
2024-01-18T14:33:22.378Z,18.85
2024-01-18T14:35:49.127Z,15.13
2024-01-18T14:38:15.513Z,18.77
2024-01-18T14:40:44.098Z,15.45
2024-01-18T14:43:12.296Z,14.77
2024-01-18T14:45:38.686Z,15.50
2024-01-18T14:48:16.248Z,13.55
2024-01-18T14:50:45.997Z,13.50
2024-01-18T14:53:14.180Z,16.20
2024-01-18T14:55:40.516Z,16.17
2024-01-18T14:58:07.497Z,14.18
2024-01-18T15:00:40.790Z,19.88
2024-01-18T15:03:08.115Z,22.93
2024-01-18T15:05:35.171Z,16.70
2024-01-18T15:08:03.996Z,18.30
2024-01-18T15:10:31.277Z,17.25
2024-01-18T15:12:58.172Z,14.65
2024-01-18T15:15:24.683Z,16.00
2024-01-18T15:17:51.236Z,18.85
2024-01-18T15:20:18.074Z,16.23
2024-01-18T15:22:44.497Z,21.00
2024-01-18T15:25:11.316Z,16.02
2024-01-18T15:27:38.766Z,20.50
2024-01-18T15:30:06.330Z,16.50
2024-01-18T15:32:33.762Z,13.73
2024-01-18T15:35:01.103Z,14.15
2024-01-18T15:37:27.546Z,16.40
2024-01-18T15:39:53.994Z,18.70
2024-01-18T15:42:20.444Z,18.38
2024-01-18T15:44:46.975Z,18.98
2024-01-18T15:47:15.003Z,16.77
2024-01-18T15:49:42.981Z,18.13
2024-01-18T15:52:10.611Z,17.23
2024-01-18T15:54:37.345Z,15.88
2024-01-18T15:57:05.492Z,17.40
2024-01-18T15:59:32.045Z,19.83
2024-01-18T16:01:58.537Z,15.45
2024-01-18T16:04:25.085Z,15.83
2024-01-18T16:06:51.574Z,16.75
2024-01-18T16:09:18.070Z,17.00
2024-01-18T16:11:45.873Z,16.20
2024-01-18T16:14:12.272Z,17.10
2024-01-18T16:16:38.733Z,16.10
2024-01-18T16:19:05.119Z,20.08
2024-01-18T16:21:31.618Z,19.92
2024-01-18T16:23:58.918Z,20.65
2024-01-18T16:26:25.269Z,21.08
2024-01-18T16:28:51.605Z,24.73
2024-01-18T16:31:17.992Z,24.85
2024-01-18T16:33:44.462Z,27.33
2024-01-18T16:36:10.908Z,24.73
2024-01-18T16:38:37.472Z,25.77
2024-01-18T16:41:04.209Z,25.20
2024-01-18T16:43:30.627Z,21.83
2024-01-18T16:45:57.079Z,21.40
2024-01-18T16:48:23.566Z,20.90
2024-01-18T16:50:50.788Z,19.27
2024-01-18T16:53:17.163Z,26.27
2024-01-18T16:55:43.616Z,22.52
2024-01-18T16:58:10.244Z,24.85
2024-01-18T17:00:36.591Z,23.90
2024-01-18T17:03:03.041Z,22.98
2024-01-18T17:05:29.503Z,28.90
2024-01-18T17:07:55.933Z,26.33
2024-01-18T17:10:22.253Z,32.13
2024-01-18T17:12:48.608Z,29.50
2024-01-18T17:15:15.037Z,33.67
2024-01-18T17:17:41.422Z,39.77
2024-01-18T17:20:10.226Z,32.30
2024-01-18T17:22:38.945Z,35.05
2024-01-18T17:25:07.504Z,36.88
2024-01-18T17:27:33.829Z,38.80
2024-01-18T17:30:00.236Z,37.53
2024-01-18T17:32:26.856Z,36.40
2024-01-18T17:34:55.783Z,39.38
2024-01-18T17:37:22.119Z,39.92
2024-01-18T17:39:48.487Z,36.28
2024-01-18T17:42:14.844Z,41.73
2024-01-18T17:44:41.414Z,39.78
2024-01-18T17:47:08.492Z,43.03
2024-01-18T17:49:35.040Z,38.00
2024-01-18T17:52:01.483Z,39.67
2024-01-18T17:54:27.850Z,45.60
2024-01-18T17:56:54.208Z,40.28
2024-01-18T17:59:20.544Z,44.88
2024-01-18T18:01:48.022Z,44.22
2024-01-18T18:04:14.482Z,39.90
2024-01-18T18:06:40.910Z,42.83
2024-01-18T18:09:08.213Z,45.00
2024-01-18T18:11:34.595Z,37.55
2024-01-18T18:14:00.948Z,42.70
2024-01-18T18:16:27.281Z,39.67
2024-01-18T18:18:53.709Z,33.83
2024-01-18T18:21:23.988Z,33.03
2024-01-18T18:23:51.596Z,35.47
2024-01-18T18:26:18.017Z,36.00
2024-01-18T18:28:44.431Z,34.20
2024-01-18T18:31:11.211Z,32.73
2024-01-18T18:33:37.669Z,33.10
2024-01-18T18:36:04.516Z,34.63
2024-01-18T18:38:33.500Z,34.60
2024-01-18T18:41:00.632Z,38.15
2024-01-18T18:43:29.976Z,37.07
2024-01-18T18:45:57.275Z,34.70
2024-01-18T18:48:24.160Z,38.75
2024-01-18T18:50:51.108Z,35.85
2024-01-18T18:53:18.403Z,37.25
2024-01-18T18:55:45.179Z,40.27
2024-01-18T18:58:12.869Z,43.80
2024-01-18T19:00:39.310Z,38.30
2024-01-18T19:03:05.910Z,38.72
2024-01-18T19:05:32.361Z,40.75
2024-01-18T19:07:58.770Z,35.53
2024-01-18T19:10:25.120Z,39.95
2024-01-18T19:12:51.463Z,37.70
2024-01-18T19:15:18.395Z,36.83
2024-01-18T19:17:44.802Z,35.28
2024-01-18T19:20:11.546Z,35.73
2024-01-18T19:22:41.121Z,36.78
2024-01-18T19:25:09.245Z,35.22
2024-01-18T19:27:35.526Z,35.53
2024-01-18T19:30:01.939Z,31.75
2024-01-18T19:32:28.382Z,31.30
2024-01-18T19:34:54.844Z,36.58
2024-01-18T19:37:21.204Z,33.70
2024-01-18T19:39:48.377Z,31.30
2024-01-18T19:42:16.071Z,28.35
2024-01-18T19:44:43.255Z,25.40
2024-01-18T19:47:09.659Z,29.48
2024-01-18T19:49:36.033Z,29.38
2024-01-18T19:52:04.600Z,33.72
2024-01-18T19:54:31.254Z,30.75
2024-01-18T19:56:57.603Z,29.10
2024-01-18T19:59:24.210Z,29.83
2024-01-18T20:01:50.664Z,31.63
2024-01-18T20:04:20.615Z,33.20
2024-01-18T20:06:47.116Z,33.25
2024-01-18T20:09:13.473Z,32.63
2024-01-18T20:11:39.842Z,30.25
2024-01-18T20:14:06.399Z,31.00
2024-01-18T20:16:33.057Z,33.15
2024-01-18T20:18:59.489Z,32.50
2024-01-18T20:21:25.898Z,31.83
2024-01-18T20:23:52.525Z,33.00
2024-01-18T20:26:19.017Z,29.25
2024-01-18T20:28:46.535Z,35.03
2024-01-18T20:31:15.123Z,32.28
2024-01-18T20:33:43.358Z,37.60
2024-01-18T20:36:10.070Z,30.52
2024-01-18T20:38:36.466Z,33.00
2024-01-18T20:41:02.890Z,28.40
2024-01-18T20:43:29.257Z,25.05
2024-01-18T20:45:55.558Z,27.07
2024-01-18T20:48:22.160Z,31.10
2024-01-18T20:50:48.709Z,32.28
2024-01-18T20:53:16.039Z,30.85
2024-01-18T20:55:42.404Z,26.95
2024-01-18T20:58:09.886Z,26.43
2024-01-18T21:00:36.339Z,22.73
2024-01-18T21:03:02.930Z,25.75
2024-01-18T21:05:29.512Z,25.30
2024-01-18T21:07:56.363Z,28.80
2024-01-18T21:10:23.164Z,27.47
2024-01-18T21:12:49.726Z,24.75
2024-01-18T21:15:16.158Z,27.13
2024-01-18T21:17:45.065Z,25.70
2024-01-18T21:20:12.461Z,29.17
2024-01-18T21:22:38.915Z,28.90
2024-01-18T21:25:05.432Z,29.50
2024-01-18T21:27:31.763Z,30.55
2024-01-18T21:29:58.349Z,28.75
2024-01-18T21:32:24.750Z,36.17
2024-01-18T21:34:51.782Z,33.93
2024-01-18T21:37:18.233Z,32.90
2024-01-18T21:39:44.582Z,32.42
2024-01-18T21:42:10.985Z,30.52
2024-01-18T21:44:38.088Z,29.05
2024-01-18T21:47:04.733Z,33.13
2024-01-18T21:49:32.020Z,33.83
2024-01-18T21:51:58.651Z,31.73
2024-01-18T21:54:25.100Z,33.83
2024-01-18T21:56:51.680Z,31.15
2024-01-18T21:59:24.959Z,31.43
2024-01-18T22:01:59.248Z,30.20
2024-01-18T22:04:25.967Z,34.45
2024-01-18T22:06:52.349Z,30.50
2024-01-18T22:09:24.531Z,32.50
2024-01-18T22:11:57.295Z,26.37
2024-01-18T22:14:23.732Z,27.15
2024-01-18T22:16:50.579Z,31.65
2024-01-18T22:19:29.362Z,25.92
2024-01-18T22:22:03.271Z,27.92
2024-01-18T22:24:29.647Z,31.97
2024-01-18T22:26:55.983Z,32.22
2024-01-18T22:29:22.365Z,32.85
2024-01-18T22:31:48.686Z,32.78
2024-01-18T22:34:15.021Z,30.35
2024-01-18T22:36:41.342Z,31.50
2024-01-18T22:39:07.683Z,31.98
2024-01-18T22:41:34.027Z,32.60
2024-01-18T22:44:00.441Z,28.13
2024-01-18T22:46:31.009Z,24.52
2024-01-18T22:48:58.278Z,27.30
2024-01-18T22:51:24.848Z,24.13
2024-01-18T22:53:51.245Z,21.50
2024-01-18T22:56:17.721Z,25.40
2024-01-18T22:58:44.158Z,23.90
2024-01-18T23:01:10.599Z,23.47
2024-01-18T23:03:36.960Z,23.02
2024-01-18T23:06:04.949Z,26.02
2024-01-18T23:08:31.851Z,22.95
2024-01-18T23:11:01.074Z,24.88
2024-01-18T23:13:27.751Z,21.57
2024-01-18T23:15:54.297Z,22.08
2024-01-18T23:18:20.765Z,21.95
2024-01-18T23:20:48.076Z,21.25
2024-01-18T23:23:14.676Z,23.25
2024-01-18T23:25:41.965Z,17.87
2024-01-18T23:28:08.450Z,21.63
2024-01-18T23:30:36.840Z,23.80
2024-01-18T23:33:03.333Z,22.88
2024-01-18T23:35:29.757Z,23.98
2024-01-18T23:37:56.122Z,25.00
2024-01-18T23:40:22.455Z,24.23
2024-01-18T23:42:48.930Z,25.80
2024-01-18T23:45:16.169Z,26.60
2024-01-18T23:47:42.636Z,24.60
2024-01-18T23:50:09.625Z,22.97
2024-01-18T23:52:35.983Z,24.20
2024-01-18T23:55:04.468Z,31.15
2024-01-18T23:57:30.822Z,29.67
2024-01-18T23:59:57.220Z,23.88
